Time;durP1;ratioP1;P1;durP2;ratioP2;P2;SDS_P1;SDS_P2;PMS_P1;PMS_P2;Temp;Humidity;BMP_temperature;BMP_pressure;BME280_temperature;BME280_humidity;BME280_pressure;Samples;Min_cycle;Max_cycle;Signal;HPM_P1;HPM_P2
2022/11/26 00:00:40;;;;;;;16.75;9.60;;;11.70;52.60;;;;;;5051487;28;20169;-41
2022/11/26 00:03:08;;;;;;;13.87;7.80;;;11.70;52.70;;;;;;5051360;28;20714;-40
2022/11/26 00:05:34;;;;;;;15.93;8.68;;;11.70;52.80;;;;;;5050764;28;20450;-40
2022/11/26 00:08:00;;;;;;;20.60;9.60;;;11.70;52.70;;;;;;5051337;28;20200;-39
2022/11/26 00:10:29;;;;;;;15.82;9.55;;;11.70;52.70;;;;;;5051613;28;20181;-39
2022/11/26 00:12:55;;;;;;;22.40;9.88;;;11.70;52.70;;;;;;5051338;28;20169;-40
2022/11/26 00:15:26;;;;;;;14.52;10.07;;;11.70;52.90;;;;;;5054381;28;20173;-40
2022/11/26 00:17:52;;;;;;;13.30;9.30;;;11.70;52.80;;;;;;5054276;28;20198;-40
2022/11/26 00:20:21;;;;;;;12.57;9.20;;;11.70;53.00;;;;;;5054799;28;20636;-40
2022/11/26 00:22:53;;;;;;;12.48;9.30;;;11.70;52.90;;;;;;5054873;28;20192;-40
2022/11/26 00:25:25;;;;;;;19.65;9.88;;;11.70;52.90;;;;;;5054679;28;20209;-40
2022/11/26 00:27:53;;;;;;;11.77;9.65;;;11.70;52.70;;;;;;5054059;28;20201;-40
2022/11/26 00:30:22;;;;;;;16.80;10.27;;;11.80;52.70;;;;;;5054699;28;20633;-40
2022/11/26 00:32:48;;;;;;;12.90;8.82;;;11.80;52.80;;;;;;5054516;28;20648;-39
2022/11/26 00:35:14;;;;;;;12.23;8.30;;;11.70;52.80;;;;;;5054581;28;20266;-41
2022/11/26 00:37:48;;;;;;;12.93;8.32;;;11.70;52.90;;;;;;5054065;28;20518;-40
2022/11/26 00:40:22;;;;;;;13.68;9.48;;;11.70;52.90;;;;;;5054618;28;20659;-40
2022/11/26 00:42:49;;;;;;;17.48;8.70;;;11.70;53.00;;;;;;5054441;28;20183;-40
2022/11/26 00:45:16;;;;;;;16.10;11.48;;;11.70;53.00;;;;;;5054234;28;20204;-40
2022/11/26 00:47:42;;;;;;;19.83;9.80;;;11.70;52.90;;;;;;5053691;28;20198;-40
2022/11/26 00:50:13;;;;;;;13.77;9.47;;;11.70;52.90;;;;;;5054333;28;20596;-40
2022/11/26 00:52:39;;;;;;;10.13;8.40;;;11.70;53.00;;;;;;5054218;28;20965;-40
2022/11/26 00:55:20;;;;;;;15.03;8.50;;;11.70;53.00;;;;;;5054227;28;20185;-39
2022/11/26 00:57:46;;;;;;;21.92;10.55;;;11.70;52.90;;;;;;5053595;28;20204;-41
2022/11/26 01:00:21;;;;;;;14.53;7.97;;;11.70;52.90;;;;;;5054134;28;20261;-40
2022/11/26 01:02:47;;;;;;;14.23;8.90;;;11.70;53.00;;;;;;5054118;28;20911;-40
2022/11/26 01:05:14;;;;;;;10.57;7.70;;;11.70;53.00;;;;;;5053905;28;20201;-39
2022/11/26 01:07:41;;;;;;;19.67;8.75;;;11.70;53.60;;;;;;5053323;28;20211;-40
2022/11/26 01:10:21;;;;;;;9.13;7.57;;;11.70;52.90;;;;;;5053921;28;20196;-40
2022/11/26 01:12:47;;;;;;;16.70;9.60;;;11.70;52.80;;;;;;5053911;28;20415;-40
2022/11/26 01:15:14;;;;;;;16.08;9.45;;;11.80;52.70;;;;;;5054054;28;20525;-39
2022/11/26 01:17:39;;;;;;;10.73;7.72;;;11.80;52.60;;;;;;5053343;28;20690;-40
2022/11/26 01:20:23;;;;;;;13.97;8.20;;;11.80;52.60;;;;;;5053720;28;20682;-39
2022/11/26 01:22:50;;;;;;;14.30;7.88;;;11.70;52.70;;;;;;5053689;28;20526;-40
2022/11/26 01:25:17;;;;;;;13.57;8.38;;;11.70;52.70;;;;;;5052943;28;20272;-40
2022/11/26 01:27:43;;;;;;;11.48;8.27;;;11.60;52.80;;;;;;5052871;28;20232;-40
2022/11/26 01:30:15;;;;;;;11.95;8.23;;;11.60;53.00;;;;;;5053685;28;20541;-40
2022/11/26 01:32:40;;;;;;;10.70;7.88;;;11.60;53.00;;;;;;5053368;28;20180;-40
2022/11/26 01:35:06;;;;;;;14.17;8.60;;;11.60;53.00;;;;;;5053696;28;20336;-40
2022/11/26 01:37:32;;;;;;;12.90;8.75;;;11.60;53.00;;;;;;5052759;28;20677;-40
2022/11/26 01:39:58;;;;;;;14.87;9.13;;;11.70;53.00;;;;;;5053331;28;20185;-40
2022/11/26 01:42:47;;;;;;;15.43;8.60;;;11.70;52.80;;;;;;5053338;28;20180;-39
2022/11/26 01:45:20;;;;;;;12.88;8.80;;;11.70;52.70;;;;;;5053090;28;20192;-40
2022/11/26 01:47:47;;;;;;;14.75;9.85;;;11.70;52.70;;;;;;5052764;28;20224;-39
2022/11/26 01:50:30;;;;;;;13.70;8.40;;;11.70;52.70;;;;;;5053099;28;20643;-40
2022/11/26 01:53:03;;;;;;;16.38;8.40;;;11.80;52.50;;;;;;5053151;28;20183;-40
2022/11/26 01:55:54;;;;;;;13.05;8.13;;;11.80;52.30;;;;;;5053006;28;20181;-38
2022/11/26 01:58:30;;;;;;;15.45;8.02;;;11.80;52.20;;;;;;5052392;28;20238;-40
2022/11/26 02:00:56;;;;;;;11.50;7.38;;;11.80;52.10;;;;;;5052917;28;20283;-40
2022/11/26 02:03:22;;;;;;;13.70;8.03;;;11.70;52.10;;;;;;5053013;28;20183;-40
2022/11/26 02:05:57;;;;;;;18.95;8.57;;;11.70;52.20;;;;;;5052208;28;20486;-39
2022/11/26 02:08:26;;;;;;;12.82;9.00;;;11.70;52.20;;;;;;5052941;28;20180;-39
2022/11/26 02:10:52;;;;;;;21.05;9.93;;;11.70;52.10;;;;;;5052808;28;20168;-38
2022/11/26 02:13:19;;;;;;;17.80;9.80;;;11.70;52.20;;;;;;5053239;28;20532;-40
2022/11/26 02:15:52;;;;;;;15.32;9.20;;;11.70;52.40;;;;;;5051022;28;20823;-40
2022/11/26 02:18:20;;;;;;;12.65;9.50;;;11.70;52.30;;;;;;5052864;28;20556;-41
2022/11/26 02:21:00;;;;;;;14.25;9.07;;;11.70;52.40;;;;;;5052642;28;20259;-40
2022/11/26 02:23:53;;;;;;;14.48;9.23;;;11.70;52.30;;;;;;5052636;28;20168;-40
2022/11/26 02:26:33;;;;;;;15.07;9.02;;;11.70;52.20;;;;;;5051841;28;20287;-40
2022/11/26 02:29:16;;;;;;;14.35;9.57;;;11.70;52.40;;;;;;5052287;28;20578;-40
2022/11/26 02:31:54;;;;;;;12.85;9.50;;;11.70;52.50;;;;;;5052801;28;20145;-41
2022/11/26 02:34:26;;;;;;;16.23;10.20;;;11.70;52.60;;;;;;5052521;28;20502;-41
2022/11/26 02:37:06;;;;;;;27.65;10.52;;;11.70;53.40;;;;;;5051415;28;20561;-40
2022/11/26 02:39:32;;;;;;;17.92;10.80;;;11.70;52.70;;;;;;5052137;28;20187;-40
2022/11/26 02:42:02;;;;;;;15.67;11.20;;;11.60;52.70;;;;;;5052402;28;20175;-40
2022/11/26 02:44:35;;;;;;;15.73;9.65;;;11.60;53.20;;;;;;5052368;28;20269;-40
2022/11/26 02:47:06;;;;;;;24.50;11.90;;;11.60;53.30;;;;;;5051827;28;20188;-41
2022/11/26 02:49:33;;;;;;;14.93;10.23;;;11.60;53.40;;;;;;5052212;28;20184;-39
2022/11/26 02:52:02;;;;;;;14.20;9.07;;;11.50;53.60;;;;;;5052207;28;20169;-40
2022/11/26 02:54:30;;;;;;;18.02;9.63;;;11.50;53.40;;;;;;5052309;28;20172;-40
2022/11/26 02:56:58;;;;;;;14.48;9.05;;;11.60;53.40;;;;;;5051618;28;20226;-39
2022/11/26 02:59:24;;;;;;;14.65;9.48;;;11.60;53.20;;;;;;5052213;28;20194;-40
2022/11/26 03:01:59;;;;;;;14.18;8.27;;;11.60;53.20;;;;;;5052167;28;20177;-40
2022/11/26 03:04:33;;;;;;;11.38;8.38;;;11.70;53.20;;;;;;5052077;28;20612;-40
2022/11/26 03:07:03;;;;;;;13.63;10.48;;;11.70;53.00;;;;;;5051463;28;20192;-40
2022/11/26 03:09:39;;;;;;;16.05;8.80;;;11.70;53.00;;;;;;5051891;28;20216;-39
2022/11/26 03:12:05;;;;;;;20.35;9.93;;;11.70;52.90;;;;;;5051903;28;20215;-41
2022/11/26 03:14:31;;;;;;;16.83;9.70;;;11.70;52.90;;;;;;5051877;28;20177;-40
2022/11/26 03:16:56;;;;;;;19.17;11.03;;;11.70;53.00;;;;;;5051318;28;20181;-39
2022/11/26 03:19:22;;;;;;;16.70;9.63;;;11.70;53.10;;;;;;5052051;28;20189;-39
2022/11/26 03:21:48;;;;;;;14.30;9.50;;;11.60;53.30;;;;;;5051959;28;20176;-39
2022/11/26 03:24:13;;;;;;;13.17;8.77;;;11.50;53.40;;;;;;5051946;28;20243;-40
2022/11/26 03:26:39;;;;;;;16.23;10.37;;;11.50;53.60;;;;;;5051267;28;20212;-41
2022/11/26 03:29:05;;;;;;;14.10;9.83;;;11.50;53.40;;;;;;5051548;28;20575;-40
2022/11/26 03:31:31;;;;;;;18.20;9.33;;;11.50;53.40;;;;;;5051681;28;20181;-40
2022/11/26 03:33:56;;;;;;;18.87;9.77;;;11.60;53.30;;;;;;5051814;28;20242;-39
2022/11/26 03:36:22;;;;;;;16.43;8.80;;;11.60;53.30;;;;;;5051223;28;20188;-41
2022/11/26 03:38:48;;;;;;;18.90;9.20;;;11.50;53.40;;;;;;5051778;28;20251;-39
2022/11/26 03:41:13;;;;;;;18.07;8.63;;;11.50;53.40;;;;;;5052004;28;20204;-41
2022/11/26 03:43:39;;;;;;;13.57;8.90;;;11.50;53.50;;;;;;5052247;28;20528;-39
2022/11/26 03:46:05;;;;;;;16.27;9.40;;;11.50;53.40;;;;;;5051183;28;20193;-39
2022/11/26 03:48:30;;;;;;;16.50;9.27;;;11.50;53.50;;;;;;5052133;28;20192;-40
2022/11/26 03:50:56;;;;;;;14.63;9.33;;;11.50;53.40;;;;;;5055435;28;20200;-40
2022/11/26 03:53:22;;;;;;;15.50;9.90;;;11.50;53.70;;;;;;5055437;28;20168;-40
2022/11/26 03:55:48;;;;;;;13.83;9.17;;;11.50;53.90;;;;;;5054767;28;20200;-40
2022/11/26 03:58:13;;;;;;;15.40;9.07;;;11.50;54.00;;;;;;5055248;28;20213;-40
2022/11/26 04:00:39;;;;;;;16.67;9.27;;;11.40;54.00;;;;;;5055327;28;20589;-39
2022/11/26 04:03:05;;;;;;;13.67;9.80;;;11.40;54.20;;;;;;5055346;28;20185;-40
2022/11/26 04:05:31;;;;;;;22.70;9.63;;;11.40;54.10;;;;;;5054906;28;20246;-40
2022/11/26 04:07:56;;;;;;;16.88;10.48;;;11.50;54.10;;;;;;5054821;28;20208;-40
2022/11/26 04:10:22;;;;;;;18.43;10.43;;;11.50;53.90;;;;;;5055457;28;20649;-40
2022/11/26 04:12:48;;;;;;;15.47;10.27;;;11.50;53.80;;;;;;5055024;28;20165;-40
2022/11/26 04:15:14;;;;;;;14.67;9.37;;;11.60;53.80;;;;;;5054879;28;20415;-40
2022/11/26 04:17:40;;;;;;;20.93;10.70;;;11.60;53.60;;;;;;5054469;28;20200;-41
2022/11/26 04:20:06;;;;;;;14.77;10.70;;;11.60;53.70;;;;;;5054946;28;20258;-40
2022/11/26 04:22:31;;;;;;;18.13;9.73;;;11.60;53.70;;;;;;5054865;28;20655;-40
2022/11/26 04:24:57;;;;;;;12.00;9.50;;;11.60;53.70;;;;;;5054758;28;20307;-40
2022/11/26 04:27:23;;;;;;;19.33;11.00;;;11.50;53.80;;;;;;5053951;28;20180;-41
2022/11/26 04:29:49;;;;;;;21.83;11.30;;;11.60;53.80;;;;;;5054834;28;20248;-40
2022/11/26 04:32:14;;;;;;;17.20;10.40;;;11.60;53.70;;;;;;5054639;28;20395;-39
2022/11/26 04:34:40;;;;;;;16.13;10.50;;;11.60;53.60;;;;;;5054637;28;20168;-39
2022/11/26 04:37:06;;;;;;;19.20;11.73;;;11.70;53.70;;;;;;5053971;28;20168;-39
2022/11/26 04:39:31;;;;;;;15.93;10.70;;;11.70;53.60;;;;;;5054514;28;20224;-40
2022/11/26 04:41:57;;;;;;;17.03;11.77;;;11.70;53.50;;;;;;5054465;28;20268;-40
2022/11/26 04:44:23;;;;;;;22.57;11.30;;;11.70;53.40;;;;;;5054331;28;20188;-40
2022/11/26 04:46:49;;;;;;;19.47;11.17;;;11.70;53.40;;;;;;5053777;28;20709;-40
2022/11/26 04:49:14;;;;;;;15.00;9.67;;;11.70;53.40;;;;;;5054404;28;20192;-40
2022/11/26 04:51:40;;;;;;;20.53;11.57;;;11.70;53.40;;;;;;5054351;28;20215;-41
2022/11/26 04:54:06;;;;;;;15.00;9.63;;;11.70;53.30;;;;;;5054521;28;20303;-41
2022/11/26 04:56:31;;;;;;;19.53;10.93;;;11.70;53.30;;;;;;5053540;28;20642;-41
2022/11/26 04:58:57;;;;;;;20.70;10.60;;;11.70;53.30;;;;;;5054136;28;20680;-40
2022/11/26 05:01:23;;;;;;;14.93;11.00;;;11.80;53.30;;;;;;5053591;28;20180;-40
2022/11/26 05:03:49;;;;;;;27.13;12.73;;;11.70;53.20;;;;;;5054675;28;20202;-40
2022/11/26 05:06:15;;;;;;;13.93;9.95;;;11.70;53.20;;;;;;5053450;28;20447;-40
2022/11/26 05:08:41;;;;;;;15.13;11.77;;;11.70;53.20;;;;;;5054031;28;20695;-40
2022/11/26 05:11:07;;;;;;;20.10;11.57;;;11.70;53.40;;;;;;5053877;28;20457;-39
2022/11/26 05:13:32;;;;;;;21.90;11.80;;;11.70;53.40;;;;;;5053874;28;20165;-39
2022/11/26 05:15:58;;;;;;;23.07;12.10;;;11.70;53.40;;;;;;5053271;28;20173;-40
2022/11/26 05:18:24;;;;;;;18.37;12.27;;;11.70;53.40;;;;;;5053795;28;20189;-41
2022/11/26 05:20:50;;;;;;;26.10;14.43;;;11.70;53.40;;;;;;5053804;28;20524;-40
2022/11/26 05:23:16;;;;;;;15.57;10.40;;;11.70;53.40;;;;;;5053876;28;20995;-40
2022/11/26 05:25:41;;;;;;;17.17;11.77;;;11.80;53.40;;;;;;5053023;28;20509;-39
2022/11/26 05:28:07;;;;;;;21.40;13.77;;;11.80;53.40;;;;;;5052094;28;20220;-39
2022/11/26 05:30:33;;;;;;;17.43;11.23;;;11.80;53.30;;;;;;5053559;28;20420;-39
2022/11/26 05:32:59;;;;;;;22.30;12.50;;;11.80;53.30;;;;;;5053608;28;20404;-40
2022/11/26 05:35:25;;;;;;;17.50;12.50;;;11.80;53.40;;;;;;5053496;28;20200;-40
2022/11/26 05:37:51;;;;;;;19.13;12.73;;;11.80;53.40;;;;;;5053391;28;20669;-40
2022/11/26 05:40:16;;;;;;;18.47;12.53;;;11.80;53.50;;;;;;5053313;28;20666;-40
2022/11/26 05:42:42;;;;;;;11.83;10.00;;;11.70;53.70;;;;;;5053307;28;20180;-39
2022/11/26 05:45:08;;;;;;;17.87;11.80;;;11.70;53.60;;;;;;5053076;28;20805;-39
2022/11/26 05:47:34;;;;;;;18.00;12.35;;;11.70;53.70;;;;;;5052524;28;20224;-40
2022/11/26 05:50:00;;;;;;;16.10;11.60;;;11.80;53.70;;;;;;5053118;28;20246;-40
2022/11/26 05:52:26;;;;;;;17.33;11.40;;;11.80;53.60;;;;;;5053133;28;20402;-40
2022/11/26 05:54:51;;;;;;;24.40;11.30;;;11.80;53.60;;;;;;5052984;28;20417;-40
2022/11/26 05:57:18;;;;;;;22.57;10.40;;;11.80;53.70;;;;;;5052384;28;20181;-40
2022/11/26 05:59:47;;;;;;;23.38;12.48;;;11.70;53.90;;;;;;5053216;28;20275;-39
2022/11/26 06:02:12;;;;;;;19.88;12.82;;;11.70;54.50;;;;;;5053111;28;20181;-40
2022/11/26 06:04:38;;;;;;;21.67;13.10;;;11.50;55.00;;;;;;5052812;28;20172;-39
2022/11/26 06:07:04;;;;;;;17.10;10.77;;;11.50;55.40;;;;;;5052325;28;20169;-40
2022/11/26 06:09:30;;;;;;;17.10;11.00;;;11.40;55.30;;;;;;5052760;28;20209;-40
2022/11/26 06:11:55;;;;;;;21.60;13.60;;;11.40;55.60;;;;;;5052482;28;20588;-40
2022/11/26 06:14:21;;;;;;;22.70;13.70;;;11.50;55.60;;;;;;5052808;28;20203;-39
2022/11/26 06:16:47;;;;;;;25.30;13.93;;;11.50;55.50;;;;;;5052102;28;20172;-40
2022/11/26 06:19:12;;;;;;;17.00;13.27;;;11.50;55.40;;;;;;5052554;28;20941;-40
2022/11/26 06:21:38;;;;;;;27.70;13.07;;;11.50;55.30;;;;;;5052679;28;20169;-39
2022/11/26 06:24:04;;;;;;;23.67;14.57;;;11.60;55.00;;;;;;5052568;28;20173;-39
2022/11/26 06:26:30;;;;;;;22.55;12.07;;;11.60;54.90;;;;;;5051837;28;20197;-40
2022/11/26 06:28:56;;;;;;;23.83;13.27;;;11.60;54.90;;;;;;5052280;28;20540;-40
2022/11/26 06:31:21;;;;;;;22.00;14.97;;;11.60;54.80;;;;;;5052384;28;20179;-40
2022/11/26 06:33:51;;;;;;;28.33;13.93;;;11.60;54.90;;;;;;5052660;28;20176;-40
2022/11/26 06:36:17;;;;;;;30.08;15.52;;;11.60;54.90;;;;;;5051749;28;20161;-39
2022/11/26 06:38:42;;;;;;;23.70;13.43;;;11.60;54.80;;;;;;5052223;28;20212;-40
2022/11/26 06:41:08;;;;;;;22.70;12.77;;;11.70;54.80;;;;;;5052212;28;20537;-39
2022/11/26 06:43:35;;;;;;;20.50;12.60;;;11.70;54.70;;;;;;5052542;28;20644;-40
2022/11/26 06:46:03;;;;;;;19.92;12.02;;;11.70;54.60;;;;;;5051526;28;20553;-40
2022/11/26 06:48:29;;;;;;;31.98;14.35;;;11.70;54.50;;;;;;5052000;28;20193;-40
2022/11/26 06:50:55;;;;;;;24.75;14.15;;;11.80;54.40;;;;;;5052058;28;20641;-39
2022/11/26 06:53:20;;;;;;;17.93;12.20;;;11.80;54.40;;;;;;5052110;28;20172;-40
2022/11/26 06:55:46;;;;;;;18.43;13.30;;;11.80;54.50;;;;;;5051508;28;20180;-40
2022/11/26 06:58:13;;;;;;;18.67;12.50;;;11.80;54.50;;;;;;5052036;28;20200;-39
2022/11/26 07:00:40;;;;;;;28.02;14.35;;;11.80;54.50;;;;;;5051998;28;20930;-39
2022/11/26 07:03:06;;;;;;;25.63;12.05;;;11.80;54.50;;;;;;5051915;28;20652;-40
2022/11/26 07:05:36;;;;;;;19.47;13.60;;;11.80;54.50;;;;;;5051853;28;20207;-39
2022/11/26 07:08:02;;;;;;;21.92;12.82;;;11.90;54.50;;;;;;5051856;28;20416;-40
2022/11/26 07:10:28;;;;;;;23.85;12.55;;;11.90;54.40;;;;;;5052084;28;20178;-40
2022/11/26 07:12:54;;;;;;;21.92;12.73;;;11.90;54.30;;;;;;5051889;28;20795;-40
2022/11/26 07:15:19;;;;;;;22.05;13.70;;;11.90;54.20;;;;;;5052025;28;20228;-40
2022/11/26 07:17:45;;;;;;;22.23;13.10;;;11.90;54.30;;;;;;5051356;28;20230;-40
2022/11/26 07:20:11;;;;;;;26.13;11.73;;;11.90;54.30;;;;;;5052140;28;20180;-40
2022/11/26 07:22:37;;;;;;;19.63;11.52;;;11.90;54.20;;;;;;5051730;28;20207;-40
2022/11/26 07:25:03;;;;;;;21.30;11.67;;;11.90;54.30;;;;;;5054993;28;20656;-39
2022/11/26 07:27:29;;;;;;;25.97;13.00;;;11.80;54.30;;;;;;5055145;28;20550;-40
2022/11/26 07:29:54;;;;;;;17.60;13.20;;;11.80;54.50;;;;;;5056066;28;20398;-40
2022/11/26 07:32:20;;;;;;;26.13;14.43;;;11.80;54.40;;;;;;5055940;28;20242;-39
2022/11/26 07:34:46;;;;;;;15.10;10.50;;;11.80;54.60;;;;;;5055674;28;20234;-39
2022/11/26 07:37:11;;;;;;;23.10;12.53;;;11.70;54.80;;;;;;5055046;28;20244;-40
2022/11/26 07:39:37;;;;;;;18.70;11.10;;;11.80;54.90;;;;;;5055462;28;20193;-40
2022/11/26 07:42:03;;;;;;;22.07;11.97;;;11.80;54.80;;;;;;5055831;28;20537;-40
2022/11/26 07:44:29;;;;;;;22.13;12.37;;;11.70;54.90;;;;;;5055671;28;20415;-40
2022/11/26 07:46:55;;;;;;;16.83;11.40;;;11.80;54.90;;;;;;5055145;28;20482;-39
2022/11/26 07:49:20;;;;;;;22.20;13.53;;;11.90;54.80;;;;;;5055399;28;20419;-40
2022/11/26 07:51:46;;;;;;;24.43;12.57;;;11.90;54.80;;;;;;5055411;28;20569;-39
2022/11/26 07:54:12;;;;;;;28.57;12.50;;;11.90;54.70;;;;;;5055307;28;20176;-40
2022/11/26 07:56:37;;;;;;;21.10;10.90;;;11.90;54.70;;;;;;5055067;28;20592;-40
2022/11/26 07:59:04;;;;;;;18.10;12.30;;;11.90;54.60;;;;;;5055251;28;20232;-40
2022/11/26 08:01:30;;;;;;;22.92;13.25;;;11.90;54.80;;;;;;5055180;28;20169;-39
2022/11/26 08:03:57;;;;;;;20.58;11.18;;;11.90;54.70;;;;;;5055226;28;20169;-40
2022/11/26 08:06:28;;;;;;;25.95;12.68;;;11.90;54.70;;;;;;5054411;28;20558;-39
2022/11/26 08:08:54;;;;;;;15.88;11.00;;;11.90;54.60;;;;;;5055214;28;20197;-40
2022/11/26 08:11:25;;;;;;;17.53;11.67;;;11.90;54.60;;;;;;5054990;28;20183;-40
2022/11/26 08:13:54;;;;;;;16.17;10.95;;;12.00;54.60;;;;;;5055036;28;20901;-39
2022/11/26 08:16:19;;;;;;;20.70;11.00;;;12.00;55.20;;;;;;5054328;28;20177;-40
2022/11/26 08:18:45;;;;;;;25.53;11.13;;;12.00;54.50;;;;;;5054760;28;20199;-40
2022/11/26 08:21:11;;;;;;;28.67;14.47;;;12.10;54.50;;;;;;5054692;28;20279;-40
2022/11/26 08:23:37;;;;;;;18.33;11.03;;;12.10;54.30;;;;;;5054921;28;20184;-40
2022/11/26 08:26:12;;;;;;;16.05;12.27;;;12.10;54.30;;;;;;5053977;28;21038;-40
2022/11/26 08:28:38;;;;;;;20.65;10.82;;;12.10;54.20;;;;;;5054584;28;20220;-40
2022/11/26 08:31:06;;;;;;;21.90;10.70;;;12.10;54.20;;;;;;5054681;28;20538;-40
2022/11/26 08:33:32;;;;;;;17.60;11.40;;;12.20;54.20;;;;;;5054560;28;20403;-40
2022/11/26 08:35:58;;;;;;;20.30;11.95;;;12.20;54.20;;;;;;5054027;28;20263;-39
2022/11/26 08:38:26;;;;;;;21.90;12.90;;;12.20;54.00;;;;;;5054659;28;20534;-40
2022/11/26 08:40:53;;;;;;;20.23;11.05;;;12.20;54.20;;;;;;5055098;28;20414;-39
2022/11/26 08:43:20;;;;;;;16.08;9.57;;;12.30;54.10;;;;;;5055093;28;20178;-40
2022/11/26 08:45:58;;;;;;;24.30;10.43;;;12.60;54.00;;;;;;5053871;28;20196;-40
2022/11/26 08:48:26;;;;;;;17.58;10.32;;;12.30;53.80;;;;;;5054388;28;20657;-40
2022/11/26 08:51:08;;;;;;;22.88;11.65;;;12.30;53.60;;;;;;5054316;28;20184;-40
2022/11/26 08:53:35;;;;;;;22.20;11.05;;;12.80;53.60;;;;;;5054537;28;20200;-41
2022/11/26 08:56:02;;;;;;;13.93;10.35;;;13.40;53.40;;;;;;5053644;28;20173;-40
2022/11/26 08:58:28;;;;;;;20.83;9.65;;;13.60;51.70;;;;;;5054169;28;20583;-40
2022/11/26 09:00:54;;;;;;;14.73;9.03;;;13.60;51.10;;;;;;5054009;28;20657;-40
2022/11/26 09:03:20;;;;;;;15.82;8.70;;;13.60;51.80;;;;;;5054350;28;20617;-40
2022/11/26 09:05:46;;;;;;;16.40;8.70;;;13.50;50.90;;;;;;5052126;28;20753;-40
2022/11/26 09:08:11;;;;;;;18.23;9.50;;;13.40;51.30;;;;;;5053535;28;20283;-40
2022/11/26 09:10:37;;;;;;;15.20;7.87;;;13.20;51.20;;;;;;5053902;28;20181;-40
2022/11/26 09:13:03;;;;;;;14.20;10.40;;;13.20;51.60;;;;;;5053722;28;20173;-39
2022/11/26 09:15:28;;;;;;;14.47;8.27;;;13.10;51.80;;;;;;5053749;28;20785;-39
2022/11/26 09:17:54;;;;;;;23.27;8.60;;;13.10;51.60;;;;;;5053354;28;20200;-40
2022/11/26 09:20:20;;;;;;;11.73;7.93;;;13.10;51.60;;;;;;5053621;28;20529;-40
2022/11/26 09:22:46;;;;;;;16.97;8.47;;;12.90;51.40;;;;;;5052329;28;20191;-40
2022/11/26 09:25:11;;;;;;;20.70;8.73;;;12.90;52.00;;;;;;5053545;28;20193;-39
2022/11/26 09:27:37;;;;;;;14.27;9.37;;;12.90;52.20;;;;;;5052825;28;20212;-40
2022/11/26 09:30:03;;;;;;;14.47;8.07;;;12.90;51.60;;;;;;5053498;28;20173;-40
2022/11/26 09:32:29;;;;;;;12.90;8.77;;;12.90;52.10;;;;;;5053471;28;20216;-40
2022/11/26 09:34:55;;;;;;;17.20;9.70;;;12.90;52.20;;;;;;5053409;28;20173;-40
2022/11/26 09:37:21;;;;;;;17.40;8.20;;;12.90;52.00;;;;;;5052745;28;20180;-40
2022/11/26 09:39:46;;;;;;;16.67;10.10;;;12.90;52.10;;;;;;5053421;28;20177;-40
2022/11/26 09:42:25;;;;;;;20.47;8.93;;;12.90;51.70;;;;;;5053271;28;20410;-40
2022/11/26 09:45:10;;;;;;;17.35;7.28;;;12.90;52.00;;;;;;5053270;28;20262;-40
2022/11/26 09:47:47;;;;;;;13.10;8.65;;;12.90;51.90;;;;;;5052300;28;20216;-40
2022/11/26 09:50:13;;;;;;;12.52;7.32;;;13.00;52.10;;;;;;5053264;28;20530;-40
2022/11/26 09:53:15;;;;;;;19.53;9.47;;;13.00;52.30;;;;;;5053168;28;20199;-40
2022/11/26 09:55:44;;;;;;;28.98;8.32;;;13.10;52.30;;;;;;5052671;28;20157;-40
2022/11/26 09:58:19;;;;;;;15.65;7.80;;;13.10;52.20;;;;;;5052937;28;20197;-40
2022/11/26 10:00:48;;;;;;;15.48;8.77;;;13.20;52.10;;;;;;5053280;28;20165;-40
2022/11/26 10:03:24;;;;;;;11.18;7.35;;;13.20;51.80;;;;;;5052884;28;20708;-40
2022/11/26 10:06:08;;;;;;;19.35;7.57;;;13.20;51.90;;;;;;5051120;28;20633;-40
2022/11/26 10:08:57;;;;;;;11.88;7.72;;;13.30;52.10;;;;;;5053054;28;20271;-40
2022/11/26 10:11:46;;;;;;;19.60;9.38;;;13.30;52.10;;;;;;5052629;28;20165;-40
2022/11/26 10:14:40;;;;;;;21.40;8.45;;;13.30;51.90;;;;;;5052786;28;20193;-40
2022/11/26 10:17:26;;;;;;;15.38;6.90;;;13.30;51.80;;;;;;5052060;28;20172;-40
2022/11/26 10:20:30;;;;;;;14.98;8.07;;;13.30;51.90;;;;;;5052705;28;20157;-40
2022/11/26 10:23:11;;;;;;;17.77;8.23;;;13.40;51.80;;;;;;5052415;28;20168;-41
2022/11/26 10:25:58;;;;;;;10.82;7.30;;;13.30;51.90;;;;;;5051750;28;20297;-40
2022/11/26 10:28:33;;;;;;;12.07;7.85;;;14.40;52.30;;;;;;5052209;28;20220;-40
2022/11/26 10:31:02;;;;;;;16.10;7.00;;;13.40;50.40;;;;;;5052569;28;20238;-40
2022/11/26 10:33:36;;;;;;;10.77;6.82;;;13.20;50.40;;;;;;5052276;28;20322;-40
2022/11/26 10:36:07;;;;;;;12.60;6.38;;;13.20;50.40;;;;;;5052020;28;20172;-40
2022/11/26 10:38:33;;;;;;;11.20;5.78;;;13.10;50.90;;;;;;5052215;28;20196;-40
2022/11/26 10:40:58;;;;;;;8.57;4.80;;;13.10;50.40;;;;;;5052186;28;20205;-41
2022/11/26 10:43:24;;;;;;;9.50;4.83;;;13.00;50.20;;;;;;5052445;28;20177;-40
2022/11/26 10:45:54;;;;;;;13.43;6.90;;;13.00;50.40;;;;;;5051568;28;20225;-40
2022/11/26 10:48:26;;;;;;;11.27;6.95;;;12.90;50.20;;;;;;5052283;28;20290;-40
2022/11/26 10:51:00;;;;;;;8.90;6.03;;;13.00;50.40;;;;;;5052141;28;20541;-41
2022/11/26 10:53:28;;;;;;;11.38;6.00;;;13.00;50.00;;;;;;5052303;28;20175;-41
2022/11/26 10:56:00;;;;;;;17.10;6.10;;;13.00;50.10;;;;;;5051629;28;20189;-37
2022/11/26 10:58:30;;;;;;;16.92;6.28;;;12.90;49.20;;;;;;5051329;28;20204;-37
2022/11/26 11:01:01;;;;;;;14.43;5.50;;;12.90;48.90;;;;;;5052214;28;20174;-37
2022/11/26 11:03:45;;;;;;;11.80;5.55;;;12.80;48.80;;;;;;5052224;28;20162;-38
2022/11/26 11:06:20;;;;;;;14.15;7.78;;;12.80;49.60;;;;;;5051582;28;20323;-38
2022/11/26 11:08:51;;;;;;;15.75;6.70;;;12.80;49.10;;;;;;5051728;28;20184;-38
2022/11/26 11:11:30;;;;;;;10.32;5.38;;;12.70;48.90;;;;;;5052231;28;20165;-37
2022/11/26 11:13:56;;;;;;;7.03;4.70;;;12.70;49.50;;;;;;5051826;28;20255;-38
2022/11/26 11:16:29;;;;;;;9.75;4.65;;;12.70;49.40;;;;;;5051378;28;20567;-37
2022/11/26 11:19:04;;;;;;;10.27;5.03;;;12.70;49.50;;;;;;5051658;28;20204;-41
2022/11/26 11:21:34;;;;;;;10.95;4.53;;;12.70;48.90;;;;;;5052053;28;20226;-38
2022/11/26 11:24:21;;;;;;;9.55;5.68;;;12.80;49.10;;;;;;5052023;28;20149;-41
2022/11/26 11:26:54;;;;;;;8.77;4.82;;;12.70;49.20;;;;;;5051365;28;20197;-41
2022/11/26 11:29:27;;;;;;;17.27;4.70;;;12.70;48.00;;;;;;5051593;28;20223;-41
2022/11/26 11:31:54;;;;;;;12.60;5.40;;;12.60;49.00;;;;;;5051612;28;20261;-40
2022/11/26 11:34:30;;;;;;;13.77;4.90;;;12.70;49.30;;;;;;5051592;28;20188;-40
2022/11/26 11:37:20;;;;;;;6.95;4.20;;;12.70;49.10;;;;;;5051013;28;20172;-41
2022/11/26 11:40:02;;;;;;;8.55;4.90;;;12.70;48.90;;;;;;5051916;28;20177;-40
2022/11/26 11:42:28;;;;;;;9.95;5.28;;;12.80;49.30;;;;;;5051956;28;20189;-40
2022/11/26 11:44:55;;;;;;;14.05;6.40;;;12.80;48.90;;;;;;5051641;28;20207;-40
2022/11/26 11:47:42;;;;;;;9.43;4.43;;;12.90;49.30;;;;;;5051156;28;20188;-40
2022/11/26 11:50:29;;;;;;;18.80;5.50;;;12.90;48.40;;;;;;5051892;28;20367;-41
2022/11/26 11:53:32;;;;;;;15.18;4.28;;;12.90;48.70;;;;;;5051475;28;20173;-40
2022/11/26 11:56:25;;;;;;;14.38;5.05;;;12.90;48.70;;;;;;5050844;28;20272;-41
2022/11/26 11:59:23;;;;;;;15.85;5.78;;;13.00;48.50;;;;;;5079349;22;20197;-40
2022/11/26 12:02:10;;;;;;;9.00;5.05;;;13.00;48.40;;;;;;5045795;28;20224;-40
2022/11/26 12:04:53;;;;;;;7.22;4.43;;;13.00;48.40;;;;;;5051799;28;20192;-40
2022/11/26 12:07:45;;;;;;;14.15;5.57;;;12.90;48.30;;;;;;5050986;28;20178;-40
2022/11/26 12:10:43;;;;;;;12.02;5.63;;;13.00;48.80;;;;;;5052162;28;20208;-39
2022/11/26 12:13:12;;;;;;;8.57;4.20;;;13.10;48.80;;;;;;5054999;28;20559;-39
2022/11/26 12:15:50;;;;;;;15.38;5.20;;;13.10;48.40;;;;;;5036826;28;20280;-40
2022/11/26 12:18:19;;;;;;;13.77;5.70;;;13.20;48.30;;;;;;5055324;28;20177;-42
2022/11/26 12:21:00;;;;;;;5.55;4.57;;;13.10;48.60;;;;;;5054865;28;20196;-41
2022/11/26 12:23:36;;;;;;;13.27;5.22;;;13.20;48.20;;;;;;5054965;28;20161;-42
2022/11/26 12:26:23;;;;;;;8.63;4.10;;;13.20;47.70;;;;;;5054319;28;20192;-42
2022/11/26 12:28:51;;;;;;;11.38;4.40;;;13.20;48.00;;;;;;5054818;28;20181;-42
2022/11/26 12:31:32;;;;;;;14.27;5.53;;;13.10;47.80;;;;;;5054800;28;20636;-42
2022/11/26 12:34:04;;;;;;;14.30;4.70;;;13.20;47.80;;;;;;5054776;28;20200;-42
2022/11/26 12:36:37;;;;;;;11.25;4.75;;;13.20;48.20;;;;;;5054151;28;20177;-42
2022/11/26 12:39:17;;;;;;;9.77;4.95;;;13.20;48.20;;;;;;5054527;28;20702;-42
2022/11/26 12:41:59;;;;;;;11.63;4.78;;;13.30;48.30;;;;;;5054636;28;20648;-41
2022/11/26 12:44:36;;;;;;;7.25;4.85;;;13.40;48.10;;;;;;5054481;28;20541;-42
2022/11/26 12:47:30;;;;;;;7.85;4.50;;;13.40;48.00;;;;;;5053861;28;20222;-42